Overview Statistics Trail Chart Weather Telemetry Raw packets
 

This is the latest recevied weather packets stored in our database for station/object EA4HRG-10. If no packets are shown the sender has not sent any weather packets the latest 10 day(s).

<< 24 25 26 27 28 29 30 >>
Time Temp. Humidity Pressure Rain* Wind** Luminosity Snow
1788059437 10° C 58% 1021.9 hPa - - - -
1788058537 10° C 57% 1022 hPa - - - -
1788057637 10° C 57% 1021.8 hPa - - - -
1788056737 10.56° C 55% 1021.6 hPa - - - -
1788055837 10.56° C 55% 1021.6 hPa - - - -
1788054937 10.56° C 54% 1021.6 hPa - - - -
1788054037 10.56° C 55% 1021.5 hPa - - - -
1788053137 11.11° C 53% 1021.3 hPa - - - -
1788052237 11.67° C 52% 1021.3 hPa - - - -
1788051337 11.67° C 51% 1021.3 hPa - - - -
1788050437 12.22° C 49% 1021.2 hPa - - - -
1788049537 12.22° C 50% 1021.1 hPa - - - -
1788048637 12.78° C 49% 1021 hPa - - - -
1788047737 12.78° C 49% 1020.9 hPa - - - -
1788046837 12.78° C 48% 1020.9 hPa - - - -
1788045937 13.89° C 45% 1020.6 hPa - - - -
1788045037 13.89° C 44% 1020.6 hPa - - - -
1788044137 13.89° C 45% 1020.6 hPa - - - -
1788043877 13.89° C 45% 1020.5 hPa - - - -
1788043237 13.89° C 45% 1020.5 hPa - - - -
1788042337 13.89° C 44% 1020.3 hPa - - - -
1788041437 15° C 43% 1019.9 hPa - - - -
1788040537 15.56° C 41% 1019.5 hPa - - - -
1788039637 16.11° C 39% 1019.5 hPa - - - -
1788038737 16.11° C 40% 1019.5 hPa - - - -

* Rain since midnight (hover to see other rain measurements)
** Current wind speed in m/s (hover to see current wind gust speed)